Terminal Aerodrome Forecast
Issued by NWS Spokane, WA

Home | Current Version | Previous Version | Text Only | Print | Product List | Glossary On
Versions: 1 2 3 4 5 6 7 8 9 10 11 12 13 14 15 16 17 18 19 20 21 22 23 24 25 26 27 28 29 30
000
FTUS46 KOTX 211724
TAFGEG
TAF
KGEG 211724Z 2118/2218 06005KT P6SM -SHRASN BKN040 OVC070
     FM212000 08005KT P6SM SCT040 BKN060 BKN100
     FM220500 11005KT P6SM -SHSNRA OVC030=

USA.gov is the U.S. government's official web portal to all federal, state and local government web resources and services.